Welcome to Northern Hawkes Bay. New Zealand.
PWS Header
      nz Flag



Hit Counter


W3C Valid W3C Valid logo


    Wairoa

Select any of the Stations below to visit their websites.










Historic Data from Weather Underground
Select the location of interest below. Wairoa is the default. Please have patience, this Data is slow to load in.
Northern Hawkes Bay Historical Data
 
Daily Summary for June 18, 2018 Units:  Metric    English   Both
« Previous Day
Next Day »
Daily Weekly Monthly Yearly Custom
  Current: High: Low: Average:
Temperature: 13.2 °C 18.3 °C 7.3 °C 12.1 °C
Dew Point: 11.8 °C 12.3 °C 6.3 °C 9.1 °C
Humidity: 91% 95% 65% 83%
Wind Speed: 0.0km/h 17.2km/h 0.0km/h 3.9km/h
Wind Gust: 11.1km/h 29.4km/h - -
WindCalm - - South
Pressure: 1001.2 hPa 1010.4 hPa 1000.5 hPa -
Precipitation: 0.3 mm      
Historical Graphs
 
 
Tabular Data for June 18, 2018
Time Temperature Dew Point Pressure Wind Wind Speed Wind Gust Humidity Rainfall Rate (Hourly) solar
00:00 7.9 °C 6.7 °C 1010.0 hPa NW 8.7 km/h 11.1 km/h 92% 0.0 mm 0.00 W/m2
00:05 7.9 °C 6.7 °C 1010.1 hPa NW 8.7 km/h 13.4 km/h 92% 0.0 mm 0.00 W/m2
00:10 7.9 °C 6.7 °C 1010.1 hPa NW 6.1 km/h 13.4 km/h 92% 0.0 mm 0.00 W/m2
00:15 7.8 °C 6.7 °C 1010.1 hPa NW 6.1 km/h 11.1 km/h 93% 0.0 mm 0.00 W/m2
00:20 7.7 °C 6.7 °C 1010.2 hPa NW 3.5 km/h 8.7 km/h 93% 0.0 mm 0.00 W/m2
00:25 7.6 °C 6.6 °C 1010.3 hPa NW 7.2 km/h 8.7 km/h 93% 0.0 mm 0.00 W/m2
00:30 7.5 °C 6.4 °C 1010.3 hPa NW 3.5 km/h 8.7 km/h 93% 0.0 mm 0.00 W/m2
00:35 7.5 °C 6.4 °C 1010.4 hPa NNW 1.1 km/h 8.7 km/h 93% 0.0 mm 0.00 W/m2
00:40 7.5 °C 6.4 °C 1010.2 hPa Calm   5.0 km/h 93% 0.0 mm 0.00 W/m2
00:45 7.5 °C 6.4 °C 1010.0 hPa Calm   5.0 km/h 93% 0.0 mm 0.00 W/m2
00:50 7.4 °C 6.3 °C 1010.1 hPa Calm   5.0 km/h 93% 0.0 mm 0.00 W/m2
00:55 7.4 °C 6.5 °C 1010.0 hPa Calm     94% 0.0 mm 0.00 W/m2
01:00 7.4 °C 6.5 °C 1010.0 hPa NNE 3.5 km/h 6.1 km/h 94% 0.0 mm 0.00 W/m2
01:05 7.3 °C 6.4 °C 1010.0 hPa Calm   6.1 km/h 94% 0.0 mm 0.00 W/m2
01:10 7.4 °C 6.5 °C 1009.9 hPa North 5.0 km/h 6.1 km/h 94% 0.0 mm 0.00 W/m2
01:15 7.9 °C 7.2 °C 1009.9 hPa NNW 5.0 km/h 8.7 km/h 95% 0.0 mm 0.00 W/m2
01:20 8.3 °C 7.4 °C 1009.9 hPa NW 6.1 km/h 9.7 km/h 94% 0.0 mm 0.00 W/m2
01:25 8.3 °C 7.2 °C 1009.8 hPa NW 7.2 km/h 9.7 km/h 93% 0.0 mm 0.00 W/m2
01:30 8.3 °C 7.1 °C 1009.9 hPa NNW 6.1 km/h 8.7 km/h 92% 0.0 mm 0.00 W/m2
01:35 8.2 °C 6.8 °C 1010.1 hPa NNW 7.2 km/h 9.7 km/h 91% 0.0 mm 0.00 W/m2
01:40 8.2 °C 6.8 °C 1010.0 hPa NW 5.0 km/h 9.7 km/h 91% 0.0 mm 0.00 W/m2
01:45 8.2 °C 6.8 °C 1010.0 hPa NNW 3.5 km/h 8.7 km/h 91% 0.0 mm 0.00 W/m2
01:50 8.3 °C 6.9 °C 1010.2 hPa NNW 3.5 km/h 7.2 km/h 91% 0.0 mm 0.00 W/m2
01:55 8.3 °C 6.9 °C 1010.1 hPa NW 3.5 km/h 8.7 km/h 91% 0.0 mm 0.00 W/m2
02:00 8.4 °C 7.0 °C 1010.2 hPa NW 5.0 km/h 8.7 km/h 91% 0.0 mm 0.00 W/m2
02:05 8.5 °C 7.1 °C 1010.2 hPa NW 5.0 km/h 8.7 km/h 91% 0.0 mm 0.00 W/m2
02:10 8.7 °C 7.3 °C 1010.4 hPa NW 3.5 km/h 8.7 km/h 91% 0.0 mm 0.00 W/m2
02:15 8.7 °C 7.3 °C 1010.1 hPa Calm   7.2 km/h 91% 0.0 mm 0.00 W/m2
02:19 8.7 °C 7.3 °C 1010.0 hPa NW 3.5 km/h 6.1 km/h 91% 0.0 mm 0.00 W/m2
02:35 8.5 °C 7.1 °C 1009.9 hPa Calm   5.0 km/h 91% 0.0 mm 0.00 W/m2
02:40 8.5 °C 7.1 °C 1009.7 hPa Calm   3.5 km/h 91% 0.0 mm 0.00 W/m2
02:45 8.5 °C 7.3 °C 1009.7 hPa Calm     92% 0.0 mm 0.00 W/m2
02:50 8.5 °C 7.3 °C 1009.7 hPa NW 2.6 km/h 6.1 km/h 92% 0.0 mm 0.00 W/m2
02:55 8.5 °C 7.4 °C 1009.9 hPa NW 5.0 km/h 6.1 km/h 93% 0.0 mm 0.00 W/m2
03:00 8.5 °C 7.4 °C 1010.0 hPa NW 5.0 km/h 6.1 km/h 93% 0.0 mm 0.00 W/m2
03:05 8.5 °C 7.6 °C 1009.9 hPa Calm   6.1 km/h 94% 0.0 mm 0.00 W/m2
03:10 8.6 °C 7.7 °C 1010.0 hPa Calm   5.0 km/h 94% 0.0 mm 0.00 W/m2
03:15 8.6 °C 7.7 °C 1010.0 hPa Calm   3.5 km/h 94% 0.0 mm 0.00 W/m2
03:20 8.7 °C 7.8 °C 1009.9 hPa Calm     94% 0.0 mm 0.00 W/m2
03:25 8.8 °C 7.9 °C 1009.8 hPa NW 3.5 km/h 5.0 km/h 94% 0.0 mm 0.00 W/m2
03:30 8.9 °C 8.0 °C 1009.8 hPa NW 3.5 km/h 5.0 km/h 94% 0.0 mm 0.00 W/m2
03:35 9.1 °C 7.9 °C 1009.7 hPa NNW 3.5 km/h 7.2 km/h 92% 0.0 mm 0.00 W/m2
03:40 9.2 °C 7.8 °C 1009.8 hPa NNW 2.6 km/h 7.2 km/h 91% 0.0 mm 0.00 W/m2
03:45 9.2 °C 7.7 °C 1009.7 hPa Calm   6.1 km/h 90% 0.0 mm 0.00 W/m2
03:50 9.1 °C 7.6 °C 1009.6 hPa NW 2.6 km/h 6.1 km/h 90% 0.0 mm 0.00 W/m2
03:55 9.0 °C 7.4 °C 1009.4 hPa NW 5.0 km/h 6.1 km/h 90% 0.0 mm 0.00 W/m2
04:00 9.0 °C 7.4 °C 1009.4 hPa NW 3.5 km/h 7.2 km/h 90% 0.0 mm 0.00 W/m2
04:05 9.0 °C 7.4 °C 1009.4 hPa NW 3.5 km/h 7.2 km/h 90% 0.0 mm 0.00 W/m2
04:10 9.0 °C 7.4 °C 1009.3 hPa NW 1.1 km/h 6.1 km/h 90% 0.0 mm 0.00 W/m2
04:15 9.0 °C 7.4 °C 1009.3 hPa Calm   6.1 km/h 90% 0.0 mm 0.00 W/m2
04:20 9.0 °C 7.4 °C 1009.3 hPa Calm   5.0 km/h 90% 0.0 mm 0.00 W/m2
04:25 8.9 °C 7.5 °C 1009.3 hPa NNW 1.1 km/h 3.5 km/h 91% 0.0 mm 0.00 W/m2
04:30 8.9 °C 7.5 °C 1009.3 hPa Calm   3.5 km/h 91% 0.0 mm 0.00 W/m2
04:35 8.9 °C 7.5 °C 1009.2 hPa NNW 6.1 km/h 7.2 km/h 91% 0.0 mm 0.00 W/m2
04:40 9.0 °C 7.6 °C 1009.2 hPa NNW 2.6 km/h 7.2 km/h 91% 0.0 mm 0.00 W/m2
04:45 9.1 °C 7.7 °C 1009.1 hPa NW 1.1 km/h 7.2 km/h 91% 0.0 mm 0.00 W/m2
04:50 9.1 °C 7.7 °C 1009.1 hPa NW 3.5 km/h 6.1 km/h 91% 0.0 mm 0.00 W/m2
04:55 9.2 °C 7.7 °C 1009.1 hPa Calm   6.1 km/h 90% 0.0 mm 0.00 W/m2
05:00 9.2 °C 7.7 °C 1009.0 hPa Calm   6.1 km/h 90% 0.0 mm 0.00 W/m2
05:05 9.1 °C 7.6 °C 1009.2 hPa Calm     90% 0.0 mm 0.00 W/m2
05:10 9.1 °C 7.4 °C 1009.2 hPa Calm     89% 0.0 mm 0.00 W/m2
05:15 9.1 °C 7.4 °C 1009.2 hPa Calm     89% 0.0 mm 0.00 W/m2
05:20 9.0 °C 7.3 °C 1009.3 hPa Calm     89% 0.0 mm 0.00 W/m2
05:25 9.0 °C 7.4 °C 1009.1 hPa Calm     90% 0.0 mm 0.00 W/m2
05:30 9.0 °C 7.4 °C 1009.0 hPa Calm     90% 0.0 mm 0.00 W/m2
05:35 9.1 °C 7.6 °C 1009.0 hPa Calm   6.1 km/h 90% 0.0 mm 0.00 W/m2
05:40 9.2 °C 7.7 °C 1008.9 hPa Calm   6.1 km/h 90% 0.0 mm 0.00 W/m2
05:45 9.2 °C 7.7 °C 1009.0 hPa NW 1.1 km/h 6.1 km/h 90% 0.0 mm 0.00 W/m2
05:50 9.8 °C 8.2 °C 1009.1 hPa NW 6.1 km/h 9.7 km/h 90% 0.0 mm 0.00 W/m2
05:55 10.1 °C 8.2 °C 1008.9 hPa NW 5.0 km/h 11.1 km/h 88% 0.0 mm 0.00 W/m2
06:00 10.2 °C 8.1 °C 1009.0 hPa NW 2.6 km/h 11.1 km/h 87% 0.0 mm 0.00 W/m2
06:05 10.1 °C 7.9 °C 1008.9 hPa NW 3.5 km/h 7.2 km/h 86% 0.0 mm 0.00 W/m2
06:10 10.0 °C 7.6 °C 1008.9 hPa NW 3.5 km/h 7.2 km/h 85% 0.0 mm 0.00 W/m2
06:15 9.8 °C 7.6 °C 1008.9 hPa NNW 2.6 km/h 7.2 km/h 86% 0.0 mm 0.00 W/m2
06:20 9.7 °C 7.7 °C 1008.8 hPa NNW 2.6 km/h 7.2 km/h 87% 0.0 mm 0.00 W/m2
06:25 9.5 °C 7.4 °C 1008.8 hPa NNW 2.6 km/h 7.2 km/h 87% 0.0 mm 0.00 W/m2
06:30 9.4 °C 7.3 °C 1008.8 hPa NW 3.5 km/h 7.2 km/h 87% 0.0 mm 0.00 W/m2
06:35 9.4 °C 7.5 °C 1008.7 hPa NNW 5.0 km/h 7.2 km/h 88% 0.0 mm 0.00 W/m2
06:40 9.2 °C 7.3 °C 1008.6 hPa NNW 2.6 km/h 7.2 km/h 88% 0.0 mm 0.00 W/m2
06:45 9.2 °C 7.3 °C 1008.7 hPa NW 3.5 km/h 7.2 km/h 88% 0.0 mm 0.00 W/m2
06:50 9.2 °C 7.5 °C 1008.9 hPa NW 5.0 km/h 6.1 km/h 89% 0.0 mm 0.00 W/m2
06:55 9.2 °C 7.5 °C 1009.0 hPa NW 3.5 km/h 8.7 km/h 89% 0.0 mm 0.00 W/m2
07:00 9.2 °C 7.5 °C 1009.1 hPa NW 5.0 km/h 8.7 km/h 89% 0.0 mm 0.00 W/m2
07:05 9.2 °C 7.5 °C 1009.1 hPa NW 2.6 km/h 7.2 km/h 89% 0.0 mm 0.00 W/m2
07:10 9.1 °C 7.6 °C 1009.0 hPa NW 2.6 km/h 6.1 km/h 90% 0.0 mm 0.00 W/m2
07:15 9.1 °C 7.6 °C 1008.9 hPa Calm   6.1 km/h 90% 0.0 mm 0.00 W/m2
07:20 9.0 °C 7.4 °C 1008.9 hPa Calm   5.0 km/h 90% 0.0 mm 0.00 W/m2
07:21 9.0 °C 7.4 °C 1008.9 hPa Calm   3.5 km/h 90% 0.0 mm 0.00 W/m2
07:40 8.9 °C 7.5 °C 1008.6 hPa Calm     91% 0.0 mm 0.00 W/m2
07:45 9.0 °C 7.4 °C 1008.6 hPa Calm     90% 0.0 mm 2.00 W/m2
07:50 9.0 °C 7.6 °C 1008.6 hPa Calm     91% 0.0 mm 4.00 W/m2
07:55 9.0 °C 7.6 °C 1008.7 hPa Calm     91% 0.0 mm 8.00 W/m2
08:00 9.1 °C 7.7 °C 1008.5 hPa Calm     91% 0.0 mm 11.00 W/m2
08:05 9.2 °C 7.8 °C 1008.8 hPa Calm     91% 0.0 mm 13.00 W/m2
08:10 9.2 °C 7.8 °C 1008.6 hPa Calm     91% 0.0 mm 13.00 W/m2
08:15 9.4 °C 8.0 °C 1008.8 hPa Calm     91% 0.0 mm 15.00 W/m2
08:20 9.2 °C 7.7 °C 1008.5 hPa Calm     90% 0.0 mm 21.00 W/m2
08:25 9.2 °C 7.7 °C 1008.8 hPa Calm     90% 0.0 mm 19.00 W/m2
08:30 9.4 °C 7.8 °C 1008.8 hPa Calm   5.0 km/h 90% 0.0 mm 18.00 W/m2
08:35 9.2 °C 7.7 °C 1008.7 hPa NNW 2.6 km/h 5.0 km/h 90% 0.0 mm 20.00 W/m2
08:40 9.4 °C 7.8 °C 1008.6 hPa Calm   5.0 km/h 90% 0.0 mm 23.00 W/m2
08:45 9.4 °C 7.8 °C 1008.5 hPa Calm   5.0 km/h 90% 0.0 mm 25.00 W/m2
08:50 9.6 °C 8.1 °C 1008.4 hPa Calm   3.5 km/h 90% 0.0 mm 31.00 W/m2
08:55 9.7 °C 8.2 °C 1008.3 hPa Calm   3.5 km/h 90% 0.0 mm 40.00 W/m2
09:00 9.8 °C 8.1 °C 1008.5 hPa Calm   5.0 km/h 89% 0.0 mm 45.00 W/m2
09:05 10.0 °C 8.1 °C 1008.4 hPa Calm   5.0 km/h 88% 0.0 mm 43.00 W/m2
09:10 10.2 °C 8.3 °C 1008.3 hPa NW 5.0 km/h 7.2 km/h 88% 0.0 mm 57.00 W/m2
09:15 10.5 °C 8.4 °C 1008.3 hPa Calm   7.2 km/h 87% 0.0 mm 64.00 W/m2
09:20 10.7 °C 8.6 °C 1008.2 hPa NNW 2.6 km/h 7.2 km/h 87% 0.0 mm 72.00 W/m2
09:25 11.0 °C 8.6 °C 1008.3 hPa Calm   5.0 km/h 85% 0.0 mm 77.00 W/m2
09:30 11.1 °C 8.5 °C 1008.4 hPa NW 2.6 km/h 6.1 km/h 84% 0.0 mm 85.00 W/m2
09:32 11.2 °C 8.6 °C 1008.3 hPa NW 2.6 km/h 6.1 km/h 84% 0.0 mm 85.00 W/m2
09:50 11.8 °C 8.8 °C 1008.3 hPa NW 3.5 km/h 6.1 km/h 82% 0.0 mm 108.00 W/m2
09:55 12.0 °C 8.8 °C 1008.5 hPa NW 2.6 km/h 6.1 km/h 81% 0.0 mm 109.00 W/m2
10:00 12.1 °C 8.9 °C 1008.4 hPa Calm   6.1 km/h 81% 0.0 mm 101.00 W/m2
10:05 12.4 °C 9.2 °C 1008.3 hPa Calm   5.0 km/h 81% 0.0 mm 76.00 W/m2
10:10 12.6 °C 9.4 °C 1008.2 hPa Calm     81% 0.0 mm 64.00 W/m2
10:15 12.7 °C 9.5 °C 1008.2 hPa Calm     81% 0.0 mm 62.00 W/m2
10:20 12.8 °C 9.4 °C 1008.1 hPa Calm   5.0 km/h 80% 0.0 mm 57.00 W/m2
10:25 12.7 °C 9.3 °C 1008.1 hPa Calm   6.1 km/h 80% 0.0 mm 58.00 W/m2
10:30 12.7 °C 9.5 °C 1007.9 hPa Calm   6.1 km/h 81% 0.0 mm 63.00 W/m2
10:35 12.6 °C 9.4 °C 1007.9 hPa NNW 2.6 km/h 5.0 km/h 81% 0.0 mm 50.00 W/m2
10:40 12.7 °C 9.7 °C 1007.8 hPa Calm   5.0 km/h 82% 0.0 mm 64.00 W/m2
10:45 13.0 °C 10.0 °C 1007.9 hPa Calm   3.5 km/h 82% 0.0 mm 63.00 W/m2
10:50 13.2 °C 10.0 °C 1007.8 hPa Calm   3.5 km/h 81% 0.0 mm 64.00 W/m2
10:55 13.4 °C 10.0 °C 1007.7 hPa Calm   3.5 km/h 80% 0.0 mm 71.00 W/m2
11:00 13.6 °C 10.2 °C 1007.8 hPa NNE 2.6 km/h 5.0 km/h 80% 0.0 mm 91.00 W/m2
11:05 14.0 °C 10.1 °C 1007.8 hPa NNE 7.2 km/h 9.7 km/h 77% 0.0 mm 98.00 W/m2
11:10 14.4 °C 10.2 °C 1007.8 hPa NNE 1.1 km/h 9.7 km/h 76% 0.0 mm 100.00 W/m2
11:15 14.7 °C 10.3 °C 1007.6 hPa NE 3.5 km/h 9.7 km/h 75% 0.0 mm 110.00 W/m2
11:20 14.8 °C 10.2 °C 1007.4 hPa East 3.5 km/h 8.7 km/h 74% 0.0 mm 119.00 W/m2
11:25 14.9 °C 10.3 °C 1007.3 hPa ENE 3.5 km/h 11.1 km/h 74% 0.0 mm 95.00 W/m2
11:30 14.9 °C 10.3 °C 1007.2 hPa ENE 6.1 km/h 11.1 km/h 74% 0.0 mm 90.00 W/m2
11:35 14.9 °C 10.3 °C 1007.0 hPa ENE 6.1 km/h 12.2 km/h 74% 0.0 mm 86.00 W/m2
11:40 14.8 °C 10.2 °C 1006.8 hPa ENE 11.1 km/h 14.8 km/h 74% 0.0 mm 71.00 W/m2
11:45 14.8 °C 10.4 °C 1006.6 hPa NE 8.7 km/h 14.8 km/h 75% 0.0 mm 62.00 W/m2
11:50 14.7 °C 10.5 °C 1006.6 hPa NE 7.2 km/h 14.8 km/h 76% 0.0 mm 68.00 W/m2
11:55 14.8 °C 10.6 °C 1006.5 hPa NE 11.1 km/h 17.2 km/h 76% 0.0 mm 82.00 W/m2
12:00 14.9 °C 10.7 °C 1006.4 hPa NE 6.1 km/h 17.2 km/h 76% 0.0 mm 73.00 W/m2
12:05 14.9 °C 10.7 °C 1006.3 hPa NE 8.7 km/h 15.8 km/h 76% 0.0 mm 76.00 W/m2
12:10 15.1 °C 10.7 °C 1006.2 hPa NE 1.1 km/h 12.2 km/h 75% 0.0 mm 77.00 W/m2
12:15 15.1 °C 10.9 °C 1006.0 hPa NE 2.6 km/h 11.1 km/h 76% 0.0 mm 83.00 W/m2
12:20 15.6 °C 11.2 °C 1005.9 hPa NE 6.1 km/h 12.2 km/h 75% 0.0 mm 101.00 W/m2
12:25 16.3 °C 11.4 °C 1005.8 hPa NE 6.1 km/h 12.2 km/h 73% 0.0 mm 131.00 W/m2
12:30 17.2 °C 11.7 °C 1005.8 hPa NE 9.7 km/h 12.2 km/h 70% 0.0 mm 160.00 W/m2
12:35 17.5 °C 11.1 °C 1005.6 hPa ENE 8.7 km/h 18.3 km/h 66% 0.0 mm 177.00 W/m2
12:40 17.2 °C 10.6 °C 1005.4 hPa ENE 8.7 km/h 21.9 km/h 65% 0.0 mm 163.00 W/m2
12:45 16.9 °C 10.9 °C 1005.3 hPa NE 15.8 km/h 21.9 km/h 68% 0.0 mm 163.00 W/m2
12:50 17.3 °C 11.1 °C 1005.2 hPa NE 13.4 km/h 20.9 km/h 67% 0.0 mm 192.00 W/m2
12:55 17.8 °C 11.4 °C 1005.1 hPa ENE 12.2 km/h 19.5 km/h 66% 0.0 mm 120.00 W/m2
13:00 17.2 °C 10.8 °C 1005.0 hPa ENE 12.2 km/h 19.5 km/h 66% 0.0 mm 140.00 W/m2
13:05 16.9 °C 10.9 °C 1004.9 hPa NE 5.0 km/h 20.9 km/h 68% 0.0 mm 161.00 W/m2
13:10 17.0 °C 10.8 °C 1004.9 hPa NE 5.0 km/h 20.9 km/h 67% 0.0 mm 126.00 W/m2
13:15 17.0 °C 11.1 °C 1004.6 hPa NE 11.1 km/h 17.2 km/h 68% 0.0 mm 150.00 W/m2
13:20 17.1 °C 10.9 °C 1004.5 hPa NE 7.2 km/h 18.3 km/h 67% 0.0 mm 130.00 W/m2
13:25 17.1 °C 10.7 °C 1004.2 hPa ENE 6.1 km/h 18.3 km/h 66% 0.0 mm 106.00 W/m2
13:30 16.8 °C 10.9 °C 1004.2 hPa NE 11.1 km/h 18.3 km/h 68% 0.0 mm 106.00 W/m2
13:35 16.6 °C 11.1 °C 1004.2 hPa NE 8.7 km/h 18.3 km/h 70% 0.0 mm 66.00 W/m2
13:40 16.2 °C 11.2 °C 1003.7 hPa NNE 7.2 km/h 20.9 km/h 72% 0.0 mm 78.00 W/m2
13:45 16.1 °C 11.7 °C 1002.7 hPa NE 11.1 km/h 24.5 km/h 75% 0.0 mm 161.00 W/m2
13:50 16.9 °C 12.2 °C 1003.0 hPa NE 9.7 km/h 27.0 km/h 74% 0.0 mm 124.00 W/m2
13:55 17.4 °C 11.9 °C 1003.1 hPa NE 8.7 km/h 27.0 km/h 70% 0.0 mm 157.00 W/m2
14:00 17.8 °C 11.8 °C 1003.0 hPa NNE 12.2 km/h 20.9 km/h 68% 0.0 mm 219.00 W/m2
14:05 18.3 °C 12.1 °C 1002.8 hPa North 9.7 km/h 20.9 km/h 67% 0.0 mm 185.00 W/m2
14:10 17.8 °C 11.4 °C 1002.5 hPa NNE 8.7 km/h 28.0 km/h 66% 0.0 mm 242.00 W/m2
14:15 18.0 °C 11.8 °C 1002.6 hPa NE 9.7 km/h 28.0 km/h 67% 0.0 mm 244.00 W/m2
14:20 17.9 °C 11.4 °C 1002.2 hPa NNE 11.1 km/h 19.5 km/h 66% 0.0 mm 122.00 W/m2
14:25 16.9 °C 11.4 °C 1002.1 hPa NNE 9.7 km/h 29.4 km/h 70% 0.0 mm 66.00 W/m2
14:30 17.0 °C 11.7 °C 1002.1 hPa NNE 11.1 km/h 29.4 km/h 71% 0.0 mm 226.00 W/m2
14:35 17.9 °C 12.2 °C 1002.0 hPa NNE 9.7 km/h 20.9 km/h 69% 0.0 mm 232.00 W/m2
14:40 18.2 °C 11.8 °C 1001.7 hPa NNE 9.7 km/h 23.3 km/h 66% 0.0 mm 221.00 W/m2
14:45 18.0 °C 11.6 °C 1001.7 hPa NE 5.0 km/h 23.3 km/h 66% 0.0 mm 172.00 W/m2
14:50 17.9 °C 11.4 °C 1001.9 hPa ENE 8.7 km/h 23.3 km/h 66% 0.0 mm 138.00 W/m2
14:55 17.9 °C 11.4 °C 1001.6 hPa NNE 8.7 km/h 25.6 km/h 66% 0.0 mm 170.00 W/m2
15:00 17.7 °C 11.5 °C 1001.5 hPa NNE 8.7 km/h 25.6 km/h 67% 0.0 mm 214.00 W/m2
15:05 17.8 °C 11.4 °C 1001.5 hPa NE 17.2 km/h 25.6 km/h 66% 0.0 mm 200.00 W/m2
15:10 17.4 °C 11.4 °C 1001.3 hPa NE 15.8 km/h 25.6 km/h 68% 0.0 mm 195.00 W/m2
15:15 17.7 °C 11.7 °C 1001.3 hPa ENE 12.2 km/h 23.3 km/h 68% 0.0 mm 168.00 W/m2
15:20 18.3 °C 12.1 °C 1001.2 hPa ENE 15.8 km/h 23.3 km/h 67% 0.0 mm 96.00 W/m2
15:25 18.0 °C 11.6 °C 1001.5 hPa ENE 3.5 km/h 19.5 km/h 66% 0.0 mm 48.00 W/m2
15:30 17.4 °C 11.2 °C 1001.6 hPa NE 3.5 km/h 19.5 km/h 67% 0.0 mm 43.00 W/m2
15:35 17.1 °C 11.4 °C 1001.7 hPa NE 7.2 km/h 17.2 km/h 69% 0.0 mm 36.00 W/m2
15:40 16.8 °C 11.5 °C 1001.4 hPa NE 7.2 km/h 12.2 km/h 71% 0.0 mm 33.00 W/m2
15:45 16.6 °C 11.6 °C 1001.3 hPa NE 5.0 km/h 12.2 km/h 72% 0.0 mm 39.00 W/m2
15:50 17.4 °C 12.1 °C 1001.4 hPa NE 6.1 km/h 9.7 km/h 71% 0.0 mm 75.00 W/m2
15:55 17.8 °C 11.8 °C 1001.5 hPa NE 6.1 km/h 9.7 km/h 68% 0.0 mm 46.00 W/m2
16:00 17.6 °C 11.6 °C 1001.2 hPa NE 3.5 km/h 9.7 km/h 68% 0.0 mm 35.00 W/m2
16:05 17.0 °C 11.3 °C 1000.8 hPa NE 1.1 km/h 9.7 km/h 69% 0.0 mm 22.00 W/m2
16:10 16.6 °C 11.6 °C 1000.9 hPa NE 3.5 km/h 9.7 km/h 72% 0.0 mm 17.00 W/m2
16:15 16.3 °C 11.3 °C 1000.7 hPa Calm   6.1 km/h 72% 0.0 mm 12.00 W/m2
16:20 16.0 °C 11.2 °C 1000.7 hPa NNE 1.1 km/h 5.0 km/h 73% 0.0 mm 10.00 W/m2
16:25 15.8 °C 11.2 °C 1000.8 hPa NNE 2.6 km/h 5.0 km/h 74% 0.0 mm 9.00 W/m2
16:30 15.7 °C 11.3 °C 1000.7 hPa NNW 2.6 km/h 8.7 km/h 75% 0.0 mm 9.00 W/m2
16:35 15.6 °C 11.4 °C 1000.6 hPa NNW 1.1 km/h 8.7 km/h 76% 0.0 mm 2.00 W/m2
16:40 15.7 °C 11.5 °C 1000.5 hPa NNE 2.6 km/h 9.7 km/h 76% 0.0 mm 0.00 W/m2
16:45 15.7 °C 11.5 °C 1000.6 hPa NNE 5.0 km/h 9.7 km/h 76% 0.0 mm 0.00 W/m2
16:50 15.8 °C 11.6 °C 1000.7 hPa NE 3.5 km/h 8.7 km/h 76% 0.0 mm 0.00 W/m2
16:55 15.8 °C 11.6 °C 1000.7 hPa NE 6.1 km/h 8.7 km/h 76% 0.0 mm 0.00 W/m2
17:00 15.8 °C 11.6 °C 1000.8 hPa NE 2.6 km/h 8.7 km/h 76% 0.0 mm 0.00 W/m2
17:05 15.6 °C 11.8 °C 1001.1 hPa NE 3.5 km/h 8.7 km/h 78% 0.3 mm 0.00 W/m2
17:10 15.2 °C 11.8 °C 1001.1 hPa NNE 6.1 km/h 12.2 km/h 80% 0.3 mm 0.00 W/m2
17:15 15.0 °C 12.2 °C 1000.8 hPa NE 3.5 km/h 12.2 km/h 83% 0.3 mm 0.00 W/m2
17:20 14.6 °C 12.3 °C 1000.8 hPa NE 3.5 km/h 9.7 km/h 86% 0.3 mm 0.00 W/m2
17:25 14.4 °C 12.3 °C 1000.7 hPa NE 2.6 km/h 9.7 km/h 87% 0.3 mm 0.00 W/m2
17:30 14.3 °C 12.2 °C 1000.7 hPa NE 2.6 km/h 9.7 km/h 87% 0.3 mm 0.00 W/m2
17:35 14.2 °C 12.1 °C 1000.7 hPa NNE 2.6 km/h 9.7 km/h 87% 0.3 mm 0.00 W/m2
17:40 14.2 °C 12.1 °C 1000.8 hPa Calm   12.2 km/h 87% 0.3 mm 0.00 W/m2
17:45 14.1 °C 11.8 °C 1000.9 hPa Calm   12.2 km/h 86% 0.3 mm 0.00 W/m2
17:50 13.9 °C 11.8 °C 1000.9 hPa South 2.6 km/h 5.0 km/h 87% 0.3 mm 0.00 W/m2
17:55 13.4 °C 11.4 °C 1001.0 hPa SW 8.7 km/h 11.1 km/h 88% 0.3 mm 0.00 W/m2
18:00 13.0 °C 11.2 °C 1001.1 hPa SW 3.5 km/h 11.1 km/h 89% 0.3 mm 0.00 W/m2
18:05 13.2 °C 11.8 °C 1001.2 hPa Calm   11.1 km/h 91% 0.0 mm 0.00 W/m2
Northern Hawkes Bay. New Zealand Historic Data
Compliments of Weather Underground - 2 mb